North Miami, Florida
Current Conditions -  °F | °C
As of 3:53 AM on Thursday 23 Oct 2014 (Local Time) from KOPF Reporting Station
Light Rain Light Rain  
Wind Chill: 74°   Ceiling: Unl
Heat Index: 74°   Visibility: 10mi
Dew Point: 72°   Wind: 3mph
Humidity: 93%   Direction: 120°ESE
Pressure: 29.89"   Gusts: NA
Location:  25.9°N, 80.19°W
Report Text: KOPF 230753Z AUTO 12003KT 10SM -RA FEW013 23/22 A2989 RMK AO2 SLP121 P0001 T02330222
Loading
Personal Weather Stations






























Interactive Weather Map
Tropical Storm Tracking
New forecast layout! Learn more

10-Day Weather Forecast

Advertisements
Track Severe Weather on mobile